Time;durP1;ratioP1;P1;durP2;ratioP2;P2;SDS_P1;SDS_P2;PMS_P1;PMS_P2;Temp;Humidity;BMP_temperature;BMP_pressure;BME280_temperature;BME280_humidity;BME280_pressure;Samples;Min_cycle;Max_cycle;Signal;HPM_P1;HPM_P2
2022/10/16 00:01:46;;;;;;;20.25;3.00;;;14.30;99.90;;;;;;5033593;28;20040;-46
2022/10/16 00:04:12;;;;;;;16.60;2.47;;;14.30;99.90;;;;;;5033715;28;20103;-46
2022/10/16 00:06:38;;;;;;;19.40;2.65;;;14.20;99.90;;;;;;5033637;28;20025;-50
2022/10/16 00:09:04;;;;;;;14.07;1.83;;;14.10;99.90;;;;;;5033405;28;20476;-46
2022/10/16 00:11:33;;;;;;;15.35;2.28;;;14.20;99.90;;;;;;5033512;28;20083;-45
2022/10/16 00:14:01;;;;;;;16.88;2.80;;;14.10;99.90;;;;;;5033361;28;20036;-45
2022/10/16 00:16:28;;;;;;;15.23;2.33;;;14.20;99.90;;;;;;5033362;28;20021;-49
2022/10/16 00:18:54;;;;;;;21.30;2.03;;;14.20;99.90;;;;;;5033132;28;20104;-52
2022/10/16 00:21:22;;;;;;;17.67;2.47;;;14.30;99.90;;;;;;5015337;28;20025;-47
2022/10/16 00:23:53;;;;;;;15.45;2.13;;;14.30;99.90;;;;;;5032960;28;20057;-49
2022/10/16 00:26:19;;;;;;;13.98;1.77;;;14.30;99.90;;;;;;5033181;28;20044;-51
2022/10/16 00:28:49;;;;;;;10.48;1.73;;;14.20;99.90;;;;;;5033154;28;20112;-47
2022/10/16 00:31:17;;;;;;;9.85;2.05;;;14.20;99.90;;;;;;5032866;28;20449;-46
2022/10/16 00:33:43;;;;;;;12.10;2.17;;;14.20;99.90;;;;;;5032920;28;20484;-53
2022/10/16 00:36:12;;;;;;;11.52;1.80;;;14.20;99.90;;;;;;5032971;28;20029;-50
2022/10/16 00:38:38;;;;;;;15.77;2.40;;;14.10;99.90;;;;;;5033016;28;20079;-47
2022/10/16 00:41:06;;;;;;;9.55;1.95;;;14.00;99.90;;;;;;5032772;28;20026;-46
2022/10/16 00:43:38;;;;;;;9.93;1.80;;;14.00;99.90;;;;;;5032543;28;20033;-46
2022/10/16 00:46:14;;;;;;;10.57;1.60;;;13.90;99.90;;;;;;5032443;28;20029;-49
2022/10/16 00:48:41;;;;;;;13.07;2.45;;;13.70;99.90;;;;;;5032358;28;20443;-54
2022/10/16 00:51:07;;;;;;;14.23;2.47;;;13.70;99.90;;;;;;5032629;28;20033;-50
2022/10/16 00:53:34;;;;;;;13.93;1.98;;;13.60;99.90;;;;;;5032200;28;20109;-46
2022/10/16 00:56:00;;;;;;;17.27;2.63;;;13.50;99.90;;;;;;5014690;28;20108;-50
2022/10/16 00:58:26;;;;;;;15.80;1.95;;;13.50;99.90;;;;;;5032197;28;20034;-54
2022/10/16 01:00:52;;;;;;;12.38;1.90;;;13.60;99.90;;;;;;5031025;28;20083;-54
2022/10/16 01:03:32;;;;;;;16.02;2.10;;;13.60;99.90;;;;;;5030942;28;20465;-50
2022/10/16 01:06:19;;;;;;;12.45;1.85;;;13.70;99.90;;;;;;5030511;28;20484;-51
2022/10/16 01:09:11;;;;;;;11.38;1.60;;;13.70;99.90;;;;;;5031445;28;20038;-47
2022/10/16 01:12:16;;;;;;;16.30;1.90;;;13.80;99.90;;;;;;5032379;28;20079;-50
2022/10/16 01:14:56;;;;;;;13.55;2.10;;;13.80;99.90;;;;;;5030712;28;20522;-48
2022/10/16 01:17:34;;;;;;;13.30;2.38;;;13.90;99.90;;;;;;5032006;28;20033;-53
2022/10/16 01:20:28;;;;;;;11.85;1.70;;;13.90;99.90;;;;;;5032308;28;20040;-49
2022/10/16 01:23:08;;;;;;;12.45;2.50;;;13.90;99.90;;;;;;5032203;28;20022;-53
2022/10/16 01:25:50;;;;;;;;;;;13.80;99.90;;;;;;5032245;28;20400;-53
2022/10/16 01:28:18;;;;;;;14.93;1.67;;;13.80;99.90;;;;;;5031829;28;19912;-50
2022/10/16 01:30:46;;;;;;;14.02;2.28;;;13.80;99.90;;;;;;5031921;28;20065;-54
2022/10/16 01:33:26;;;;;;;14.00;2.22;;;13.70;99.90;;;;;;5031889;28;20029;-55
2022/10/16 01:35:55;;;;;;;20.73;2.50;;;13.70;99.90;;;;;;5031790;28;20366;-49
2022/10/16 01:38:21;;;;;;;;;;;13.70;99.90;;;;;;5031197;28;20017;-51
2022/10/16 01:40:52;;;;;;;15.13;2.30;;;13.70;99.90;;;;;;5031720;28;19905;-48
2022/10/16 01:43:25;;;;;;;12.63;2.08;;;13.70;99.90;;;;;;5031410;28;20028;-53
2022/10/16 01:45:52;;;;;;;19.63;2.53;;;13.70;99.90;;;;;;5031461;28;20026;-49
2022/10/16 01:48:20;;;;;;;19.08;2.42;;;13.70;99.90;;;;;;5031374;28;20066;-53
2022/10/16 01:50:55;;;;;;;17.25;2.75;;;13.70;99.90;;;;;;5031515;28;20449;-50
2022/10/16 01:53:23;;;;;;;14.60;2.38;;;13.70;99.90;;;;;;5031660;28;20064;-56
2022/10/16 01:55:50;;;;;;;16.88;2.25;;;13.80;99.90;;;;;;5031450;28;20021;-52
2022/10/16 01:58:16;;;;;;;16.10;2.30;;;13.80;99.90;;;;;;5031509;28;20021;-51
2022/10/16 02:00:45;;;;;;;20.48;2.17;;;13.80;99.90;;;;;;5031222;28;20068;-55
2022/10/16 02:03:13;;;;;;;16.60;2.55;;;13.80;99.90;;;;;;5031294;28;20052;-50
2022/10/16 02:05:47;;;;;;;22.53;3.03;;;13.90;99.90;;;;;;5031219;28;20022;-53
2022/10/16 02:08:13;;;;;;;16.75;2.42;;;13.90;99.90;;;;;;5031251;28;20105;-52
2022/10/16 02:10:39;;;;;;;15.50;2.17;;;13.90;99.90;;;;;;5031167;28;20044;-48
2022/10/16 02:13:22;;;;;;;17.30;2.92;;;13.90;99.90;;;;;;5030318;28;20357;-47
2022/10/16 02:15:48;;;;;;;11.63;2.38;;;13.90;99.90;;;;;;5030874;28;20032;-47
2022/10/16 02:18:14;;;;;;;17.42;2.28;;;13.90;99.90;;;;;;5031075;28;20021;-46
2022/10/16 02:20:57;;;;;;;16.92;2.45;;;13.80;99.90;;;;;;5031030;28;20021;-50
2022/10/16 02:23:42;;;;;;;17.33;2.72;;;13.80;99.90;;;;;;5013500;28;20026;-47
2022/10/16 02:26:12;;;;;;;18.83;2.63;;;13.70;99.90;;;;;;5030801;28;20067;-47
2022/10/16 02:28:48;;;;;;;16.10;2.28;;;13.70;99.90;;;;;;5030923;28;20464;-51
2022/10/16 02:31:20;;;;;;;14.15;2.03;;;13.70;99.90;;;;;;5030697;28;20366;-50
2022/10/16 02:33:46;;;;;;;16.45;2.47;;;13.60;99.90;;;;;;5030753;28;20435;-47
2022/10/16 02:36:12;;;;;;;21.20;2.20;;;13.50;99.90;;;;;;5030629;28;20538;-48
2022/10/16 02:38:39;;;;;;;10.10;2.03;;;13.40;99.90;;;;;;5030691;28;20029;-48
2022/10/16 02:41:07;;;;;;;12.07;2.30;;;13.40;99.90;;;;;;5030617;28;20010;-48
2022/10/16 02:43:33;;;;;;;17.17;2.25;;;13.30;99.90;;;;;;5030659;28;20511;-46
2022/10/16 02:45:59;;;;;;;14.85;2.17;;;13.30;99.90;;;;;;5030797;28;20026;-51
2022/10/16 02:48:25;;;;;;;14.60;2.85;;;13.30;99.90;;;;;;5030227;28;20021;-53
2022/10/16 02:50:51;;;;;;;13.48;1.90;;;13.20;99.90;;;;;;5030478;28;20025;-49
2022/10/16 02:53:16;;;;;;;15.55;1.80;;;13.10;99.90;;;;;;5030367;28;20105;-47
2022/10/16 02:55:42;;;;;;;12.60;2.00;;;13.00;99.90;;;;;;5030639;28;20369;-53
2022/10/16 02:58:08;;;;;;;11.05;1.45;;;12.90;99.90;;;;;;5030495;28;20064;-47
2022/10/16 03:00:33;;;;;;;10.00;1.52;;;12.80;99.90;;;;;;5030457;28;20124;-50
2022/10/16 03:02:59;;;;;;;6.05;1.40;;;12.90;99.90;;;;;;5030375;28;20032;-48
2022/10/16 03:05:25;;;;;;;10.18;1.73;;;12.90;99.90;;;;;;5030321;28;20057;-47
2022/10/16 03:07:52;;;;;;;5.38;1.30;;;12.90;99.90;;;;;;5030392;28;20052;-47
2022/10/16 03:10:18;;;;;;;7.95;1.60;;;12.90;99.90;;;;;;5030178;28;20042;-47
2022/10/16 03:12:43;;;;;;;10.55;1.40;;;12.90;99.90;;;;;;5030489;28;20071;-50
2022/10/16 03:15:09;;;;;;;8.55;1.52;;;12.90;99.90;;;;;;5030488;28;20484;-47
2022/10/16 03:17:35;;;;;;;11.43;1.80;;;12.90;99.90;;;;;;5030367;28;20029;-47
2022/10/16 03:20:01;;;;;;;10.35;1.33;;;12.90;99.90;;;;;;5030687;28;20041;-47
2022/10/16 03:22:27;;;;;;;6.85;1.05;;;12.90;99.90;;;;;;5030253;28;20014;-55
2022/10/16 03:24:52;;;;;;;6.88;1.10;;;12.80;99.90;;;;;;5033136;28;20456;-59
2022/10/16 03:27:18;;;;;;;7.45;1.85;;;12.70;99.90;;;;;;5034057;28;20105;-53
2022/10/16 03:29:43;;;;;;;9.38;1.42;;;12.70;99.90;;;;;;5034020;28;20068;-54
2022/10/16 03:32:09;;;;;;;7.60;1.23;;;12.70;99.90;;;;;;5034081;28;20033;-48
2022/10/16 03:34:35;;;;;;;10.48;1.75;;;12.70;99.90;;;;;;5033992;28;20068;-48
2022/10/16 03:37:00;;;;;;;14.13;1.30;;;12.70;99.90;;;;;;5016102;28;20116;-50
2022/10/16 03:39:27;;;;;;;9.23;1.13;;;12.70;99.90;;;;;;5033901;28;20025;-48
2022/10/16 03:41:52;;;;;;;11.27;1.60;;;12.60;99.90;;;;;;5033829;28;20025;-48
2022/10/16 03:44:18;;;;;;;13.07;1.75;;;12.60;99.90;;;;;;5033828;28;20079;-49
2022/10/16 03:46:43;;;;;;;10.07;1.80;;;12.60;99.90;;;;;;5015968;28;20116;-50
2022/10/16 03:49:09;;;;;;;13.18;1.63;;;12.60;99.90;;;;;;5033781;28;20048;-49
2022/10/16 03:51:35;;;;;;;8.85;1.65;;;12.60;99.90;;;;;;5033537;28;20060;-47
2022/10/16 03:54:00;;;;;;;10.10;1.38;;;12.60;99.90;;;;;;5033731;28;20080;-51
2022/10/16 03:56:26;;;;;;;13.15;1.83;;;12.60;99.90;;;;;;5033714;28;20075;-48
2022/10/16 03:58:52;;;;;;;12.00;1.60;;;12.60;99.90;;;;;;5033586;28;20024;-55
2022/10/16 04:01:17;;;;;;;7.75;1.58;;;12.50;99.90;;;;;;5033588;28;20025;-47
2022/10/16 04:03:43;;;;;;;9.43;1.23;;;12.50;99.90;;;;;;5033373;28;20013;-47
2022/10/16 04:06:08;;;;;;;9.15;1.15;;;12.40;99.90;;;;;;5033349;28;20496;-48
2022/10/16 04:08:36;;;;;;;12.20;1.58;;;12.40;99.90;;;;;;5033179;28;20022;-49
2022/10/16 04:11:02;;;;;;;9.73;1.65;;;12.30;99.90;;;;;;5033414;28;20025;-53
2022/10/16 04:13:27;;;;;;;8.95;1.58;;;12.20;99.90;;;;;;5033369;28;20092;-49
2022/10/16 04:15:53;;;;;;;8.88;1.33;;;12.20;99.90;;;;;;5033212;28;20112;-49
2022/10/16 04:18:19;;;;;;;13.07;1.92;;;12.10;99.90;;;;;;5033165;28;20045;-49
2022/10/16 04:20:44;;;;;;;7.20;1.38;;;12.10;99.90;;;;;;5033035;28;20033;-50
2022/10/16 04:23:10;;;;;;;13.98;1.95;;;12.00;99.90;;;;;;5033084;28;20021;-48
2022/10/16 04:25:36;;;;;;;11.95;1.58;;;12.00;99.90;;;;;;5032858;28;20471;-56
2022/10/16 04:28:01;;;;;;;11.23;1.75;;;12.00;99.90;;;;;;5033090;28;20018;-51
2022/10/16 04:30:27;;;;;;;13.25;2.28;;;12.00;99.90;;;;;;5033118;28;20041;-52
2022/10/16 04:32:53;;;;;;;15.63;1.98;;;12.00;99.90;;;;;;5032982;28;20018;-53
2022/10/16 04:35:20;;;;;;;14.82;2.70;;;12.00;99.90;;;;;;5031947;28;20048;-50
2022/10/16 04:37:46;;;;;;;12.32;2.20;;;12.10;99.90;;;;;;5032745;28;20064;-49
2022/10/16 04:40:13;;;;;;;12.75;1.50;;;12.10;99.90;;;;;;5032882;28;20025;-52
2022/10/16 04:42:38;;;;;;;5.28;1.33;;;12.10;99.90;;;;;;5032672;28;20025;-47
2022/10/16 04:45:05;;;;;;;14.00;2.20;;;12.10;99.90;;;;;;5032844;28;20029;-49
2022/10/16 04:47:31;;;;;;;12.20;1.88;;;12.20;99.90;;;;;;5032643;28;20022;-51
2022/10/16 04:49:57;;;;;;;16.58;1.90;;;12.20;99.90;;;;;;5032503;28;20176;-52
2022/10/16 04:52:24;;;;;;;17.00;1.67;;;12.20;99.90;;;;;;5032689;28;20534;-52
2022/10/16 04:54:50;;;;;;;14.50;2.10;;;12.20;99.90;;;;;;5032733;28;20032;-53
2022/10/16 04:57:16;;;;;;;17.13;2.33;;;12.20;99.90;;;;;;5032640;28;20017;-49
2022/10/16 04:59:42;;;;;;;13.95;2.70;;;12.20;99.90;;;;;;5032571;28;20052;-55
2022/10/16 05:02:07;;;;;;;11.35;1.85;;;12.20;99.90;;;;;;5032327;28;20013;-47
2022/10/16 05:04:33;;;;;;;9.98;1.60;;;12.10;99.90;;;;;;5032376;28;20029;-56
2022/10/16 05:06:58;;;;;;;12.02;2.17;;;12.00;99.90;;;;;;5014528;28;20017;-46
2022/10/16 05:09:24;;;;;;;12.20;1.73;;;12.10;99.90;;;;;;5032367;28;20076;-46
2022/10/16 05:11:50;;;;;;;14.02;2.00;;;12.10;99.90;;;;;;5032283;28;20100;-46
2022/10/16 05:14:15;;;;;;;16.70;2.53;;;12.00;99.90;;;;;;5032304;28;20025;-46
2022/10/16 05:16:41;;;;;;;18.08;2.38;;;12.00;99.90;;;;;;5032297;28;20029;-50
2022/10/16 05:19:06;;;;;;;14.93;1.92;;;12.00;99.90;;;;;;5031977;28;20108;-50
2022/10/16 05:21:32;;;;;;;13.68;2.20;;;12.00;99.90;;;;;;5032213;28;20033;-49
2022/10/16 05:23:58;;;;;;;15.10;2.30;;;12.00;99.90;;;;;;5031881;28;20041;-50
2022/10/16 05:26:23;;;;;;;13.93;2.30;;;12.00;99.90;;;;;;5032050;28;20441;-49
2022/10/16 05:28:50;;;;;;;13.80;2.00;;;11.90;99.90;;;;;;5031832;28;20105;-50
2022/10/16 05:31:15;;;;;;;13.65;2.17;;;11.90;99.90;;;;;;5031997;28;20030;-48
2022/10/16 05:33:41;;;;;;;10.68;2.55;;;11.90;99.90;;;;;;5031891;28;20391;-50
2022/10/16 05:36:09;;;;;;;19.80;3.28;;;11.80;99.90;;;;;;5030434;28;20140;-46
2022/10/16 05:38:35;;;;;;;19.52;2.13;;;11.80;99.90;;;;;;5031865;28;20112;-46
2022/10/16 05:41:02;;;;;;;16.67;2.40;;;11.80;99.90;;;;;;5031400;28;20507;-47
2022/10/16 05:43:29;;;;;;;13.75;2.10;;;11.70;99.90;;;;;;5031579;28;20052;-48
2022/10/16 05:46:05;;;;;;;10.98;2.03;;;11.70;99.90;;;;;;5031291;28;20037;-53
2022/10/16 05:48:31;;;;;;;15.30;2.30;;;11.60;99.90;;;;;;5031232;28;20071;-52
2022/10/16 05:51:02;;;;;;;11.38;2.08;;;11.60;99.90;;;;;;5031312;28;20038;-49
2022/10/16 05:53:29;;;;;;;16.65;2.20;;;11.60;99.90;;;;;;5031142;28;20050;-49
2022/10/16 05:55:55;;;;;;;17.02;2.15;;;11.60;99.90;;;;;;5030167;28;20026;-49
2022/10/16 05:58:22;;;;;;;12.50;2.33;;;11.60;99.90;;;;;;5031249;28;20049;-52
2022/10/16 06:00:59;;;;;;;9.25;1.80;;;11.50;99.90;;;;;;5031432;28;20080;-47
2022/10/16 06:03:25;;;;;;;14.07;1.80;;;11.50;99.90;;;;;;5031249;28;20030;-49
2022/10/16 06:05:52;;;;;;;12.48;1.83;;;11.40;99.90;;;;;;5031339;28;20036;-49
2022/10/16 06:08:19;;;;;;;15.60;2.47;;;11.30;99.90;;;;;;5031217;28;20427;-48
2022/10/16 06:10:45;;;;;;;10.63;1.63;;;11.20;99.90;;;;;;5031010;28;20140;-49
2022/10/16 06:13:12;;;;;;;11.38;1.63;;;11.20;99.90;;;;;;5031050;28;20028;-46
2022/10/16 06:15:41;;;;;;;15.50;2.00;;;11.10;99.90;;;;;;5030929;28;20021;-46
2022/10/16 06:18:07;;;;;;;12.95;1.73;;;11.00;99.90;;;;;;5031258;28;20052;-46
2022/10/16 06:20:33;;;;;;;12.20;1.83;;;10.90;99.90;;;;;;5031088;28;20025;-49
2022/10/16 06:22:58;;;;;;;12.50;1.70;;;10.90;99.90;;;;;;5031121;28;20467;-46
2022/10/16 06:25:24;;;;;;;8.88;1.63;;;10.80;99.90;;;;;;5031122;28;20045;-46
2022/10/16 06:27:49;;;;;;;10.75;1.60;;;10.80;99.90;;;;;;5031206;28;20025;-49
2022/10/16 06:30:15;;;;;;;10.43;1.83;;;10.70;99.90;;;;;;5031494;28;20457;-50
2022/10/16 06:32:40;;;;;;;14.48;2.10;;;10.70;99.90;;;;;;5030809;28;20036;-48
2022/10/16 06:35:06;;;;;;;16.73;2.97;;;10.70;99.90;;;;;;5030988;28;20049;-49
2022/10/16 06:37:32;;;;;;;16.40;2.58;;;10.70;99.90;;;;;;5030716;28;20028;-46
2022/10/16 06:39:58;;;;;;;8.32;1.83;;;10.70;99.90;;;;;;5030340;28;20025;-48
2022/10/16 06:42:23;;;;;;;10.32;1.90;;;10.70;99.90;;;;;;5030634;28;20026;-51
2022/10/16 06:44:49;;;;;;;16.05;3.70;;;10.80;99.90;;;;;;5030421;28;20029;-51
2022/10/16 06:47:14;;;;;;;9.43;1.65;;;10.70;99.90;;;;;;5030373;28;20388;-50
2022/10/16 06:49:40;;;;;;;6.28;1.40;;;10.70;99.90;;;;;;5030731;28;20049;-55
2022/10/16 06:52:06;;;;;;;9.77;1.85;;;10.70;99.90;;;;;;5030134;28;20422;-49
2022/10/16 06:54:31;;;;;;;8.60;1.50;;;10.70;99.90;;;;;;5030663;28;20075;-49
2022/10/16 06:56:57;;;;;;;12.55;1.70;;;10.70;99.90;;;;;;5029969;28;20138;-52
2022/10/16 06:59:23;;;;;;;11.05;1.92;;;10.70;99.90;;;;;;5032987;28;20036;-55
2022/10/16 07:01:48;;;;;;;15.13;2.33;;;10.70;99.90;;;;;;5034855;28;20540;-53
2022/10/16 07:04:14;;;;;;;13.77;2.28;;;10.80;99.90;;;;;;5034636;28;20020;-55
2022/10/16 07:06:40;;;;;;;12.55;1.88;;;10.90;99.90;;;;;;5034649;28;20026;-47
2022/10/16 07:09:09;;;;;;;9.27;1.70;;;10.90;99.90;;;;;;5034308;28;20029;-56
2022/10/16 07:11:36;;;;;;;10.48;1.90;;;10.90;99.90;;;;;;5034383;28;20447;-50
2022/10/16 07:14:02;;;;;;;12.07;2.03;;;11.00;99.90;;;;;;5034267;28;20036;-49
2022/10/16 07:16:29;;;;;;;12.02;2.65;;;11.00;99.90;;;;;;5034391;28;20022;-48
2022/10/16 07:19:00;;;;;;;10.57;2.75;;;11.10;99.90;;;;;;5033545;28;20727;-49
2022/10/16 07:21:35;;;;;;;14.40;2.92;;;11.30;99.90;;;;;;5033880;28;20665;-49
2022/10/16 07:24:02;;;;;;;16.85;2.47;;;11.40;99.90;;;;;;5024745;28;20120;-53
2022/10/16 07:26:29;;;;;;;10.25;1.90;;;11.60;99.90;;;;;;5026249;28;20060;-50
2022/10/16 07:28:56;;;;;;;12.27;2.22;;;11.70;99.90;;;;;;5033640;28;20500;-47
2022/10/16 07:31:23;;;;;;;9.68;1.77;;;11.90;99.90;;;;;;5034214;28;20480;-47
2022/10/16 07:33:49;;;;;;;9.93;2.22;;;11.90;99.90;;;;;;5034250;28;20144;-50
2022/10/16 07:36:17;;;;;;;5.60;1.50;;;12.00;99.90;;;;;;5033566;28;20196;-53
2022/10/16 07:38:44;;;;;;;10.00;1.92;;;12.00;99.90;;;;;;5016509;28;20028;-53
2022/10/16 07:41:15;;;;;;;11.63;2.00;;;12.10;99.90;;;;;;5032976;28;20028;-53
2022/10/16 07:43:49;;;;;;;9.77;2.15;;;12.20;99.90;;;;;;5033517;28;20100;-53
2022/10/16 07:46:16;;;;;;;13.32;2.20;;;12.30;99.90;;;;;;5033258;28;20021;-51
2022/10/16 07:48:45;;;;;;;8.38;1.40;;;12.40;99.90;;;;;;5031515;28;20021;-53
2022/10/16 07:51:11;;;;;;;8.70;1.63;;;12.50;99.90;;;;;;5033060;28;20041;-56
2022/10/16 07:53:37;;;;;;;10.38;1.58;;;12.60;99.90;;;;;;5032750;28;20503;-52
2022/10/16 07:56:05;;;;;;;11.50;1.80;;;12.80;99.90;;;;;;5032610;28;20033;-49
2022/10/16 07:58:32;;;;;;;12.00;1.92;;;12.90;99.90;;;;;;5033046;28;20040;-47
2022/10/16 08:01:02;;;;;;;12.07;2.10;;;13.10;99.90;;;;;;5033659;28;20132;-47
2022/10/16 08:03:28;;;;;;;12.10;2.17;;;13.10;99.90;;;;;;5033298;28;20032;-49
2022/10/16 08:05:54;;;;;;;12.20;1.83;;;13.20;99.90;;;;;;5033127;28;20025;-49
2022/10/16 08:08:19;;;;;;;13.60;1.83;;;13.10;99.90;;;;;;5031568;28;20060;-48
2022/10/16 08:10:45;;;;;;;10.80;1.67;;;13.20;99.90;;;;;;5031275;28;20065;-52
2022/10/16 08:13:11;;;;;;;10.60;1.92;;;13.10;99.90;;;;;;5015039;28;20373;-52
2022/10/16 08:15:36;;;;;;;12.52;2.45;;;13.20;99.90;;;;;;5032777;28;20064;-50
2022/10/16 08:18:04;;;;;;;7.03;1.73;;;13.20;99.90;;;;;;5032842;28;20050;-51
2022/10/16 08:20:32;;;;;;;12.48;2.67;;;13.40;99.90;;;;;;5032724;28;20025;-47
2022/10/16 08:22:58;;;;;;;7.97;1.92;;;13.60;99.90;;;;;;5031530;28;20036;-53
2022/10/16 08:25:24;;;;;;;11.48;1.88;;;13.90;99.90;;;;;;5031997;28;20293;-56
2022/10/16 08:27:50;;;;;;;14.35;1.95;;;14.30;99.90;;;;;;5030579;28;20101;-50
2022/10/16 08:30:17;;;;;;;9.85;2.10;;;14.80;99.90;;;;;;5031685;28;20124;-48
2022/10/16 08:32:43;;;;;;;9.35;1.67;;;15.10;99.90;;;;;;5032892;28;20112;-47
2022/10/16 08:35:10;;;;;;;9.68;1.60;;;15.60;99.90;;;;;;5032500;28;20108;-50
2022/10/16 08:37:36;;;;;;;9.85;1.88;;;16.40;99.90;;;;;;5031994;28;20480;-47
2022/10/16 08:40:01;;;;;;;9.57;1.88;;;17.70;99.90;;;;;;5031978;28;20068;-47
2022/10/16 08:42:36;;;;;;;14.15;2.10;;;19.40;99.90;;;;;;5032427;28;20030;-50
2022/10/16 08:45:02;;;;;;;8.48;1.80;;;20.00;99.90;;;;;;5032139;28;20022;-51
2022/10/16 08:47:50;;;;;;;9.40;1.95;;;20.60;99.90;;;;;;5031783;28;20072;-49
2022/10/16 08:50:24;;;;;;;11.63;1.67;;;20.90;99.90;;;;;;5032773;28;20033;-48
2022/10/16 08:52:51;;;;;;;11.55;1.95;;;21.10;99.90;;;;;;5032794;28;20029;-47
2022/10/16 08:55:43;;;;;;;11.40;2.00;;;21.10;99.90;;;;;;5032492;28;20025;-48
2022/10/16 08:58:28;;;;;;;9.75;2.10;;;21.20;99.90;;;;;;5032143;28;20029;-49
2022/10/16 09:00:56;;;;;;;9.85;2.45;;;21.40;99.90;;;;;;5032075;28;20075;-49
2022/10/16 09:03:42;;;;;;;16.30;2.37;;;21.40;99.90;;;;;;5031986;28;20040;-47
2022/10/16 09:06:27;;;;;;;7.85;2.03;;;21.60;99.90;;;;;;5030061;28;20037;-47
2022/10/16 09:09:31;;;;;;;8.93;1.80;;;23.00;99.00;;;;;;5031691;28;20388;-50
2022/10/16 09:12:11;;;;;;;10.95;1.83;;;23.70;95.60;;;;;;5030452;28;20033;-48
2022/10/16 09:14:45;;;;;;;13.27;2.35;;;23.50;95.70;;;;;;5031685;28;20104;-54
2022/10/16 09:17:40;;;;;;;12.75;2.22;;;22.20;94.70;;;;;;5031828;28;20120;-48
2022/10/16 09:20:15;;;;;;;9.00;1.63;;;21.00;96.70;;;;;;5029684;28;20025;-54
2022/10/16 09:22:40;;;;;;;11.00;2.20;;;21.00;98.60;;;;;;5030928;28;20026;-47
2022/10/16 09:25:21;;;;;;;11.43;2.30;;;21.00;99.10;;;;;;5006869;28;20057;-48
2022/10/16 09:27:52;;;;;;;10.27;1.90;;;21.00;97.80;;;;;;5007844;28;20041;-50
2022/10/16 09:30:20;;;;;;;12.63;1.90;;;21.20;98.90;;;;;;5006636;28;20043;-53
2022/10/16 09:32:49;;;;;;;10.98;2.35;;;21.00;99.10;;;;;;5010196;28;20026;-47
2022/10/16 09:35:18;;;;;;;16.90;2.55;;;20.90;99.90;;;;;;5011472;28;20026;-51
2022/10/16 09:37:45;;;;;;;;;;;20.70;99.70;;;;;;5004320;28;20033;-48
2022/10/16 09:40:29;;;;;;;8.05;1.60;;;20.90;99.60;;;;;;5009615;28;19910;-52
2022/10/16 09:43:03;;;;;;;10.85;1.90;;;21.60;98.20;;;;;;5005979;28;20068;-53
2022/10/16 09:45:29;;;;;;;12.45;2.58;;;21.60;96.30;;;;;;5005831;28;20037;-48
2022/10/16 09:47:54;;;;;;;10.23;2.20;;;22.30;97.10;;;;;;5008924;28;20034;-56
2022/10/16 09:50:29;;;;;;;11.00;1.67;;;23.20;94.20;;;;;;5011696;28;20033;-54
2022/10/16 09:53:25;;;;;;;8.55;2.13;;;24.90;92.00;;;;;;5001689;28;20030;-51
2022/10/16 09:55:53;;;;;;;12.20;2.70;;;26.00;89.00;;;;;;5003038;28;20042;-51
2022/10/16 09:58:23;;;;;;;8.20;2.20;;;25.70;88.30;;;;;;5008316;28;20040;-51
2022/10/16 10:00:53;;;;;;;9.52;1.85;;;26.00;90.80;;;;;;5011333;28;20495;-52
2022/10/16 10:03:38;;;;;;;7.40;1.52;;;27.40;86.30;;;;;;5011706;28;20030;-56
2022/10/16 10:06:26;;;;;;;8.57;2.00;;;29.30;80.50;;;;;;5010109;28;20029;-51
2022/10/16 10:08:59;;;;;;;10.48;2.20;;;30.50;74.10;;;;;;5011042;28;20041;-50
2022/10/16 10:11:47;;;;;;;9.13;2.53;;;29.60;66.20;;;;;;5002943;28;20025;-51
2022/10/16 10:14:27;;;;;;;8.63;2.05;;;30.50;67.40;;;;;;5011518;28;20018;-48
2022/10/16 10:17:04;;;;;;;10.57;1.80;;;31.30;67.30;;;;;;5011604;28;20058;-50
2022/10/16 10:19:42;;;;;;;10.20;1.90;;;31.80;61.30;;;;;;5011567;28;20516;-52
2022/10/16 10:22:19;;;;;;;10.18;2.08;;;30.40;63.80;;;;;;5011308;28;20061;-52
2022/10/16 10:25:13;;;;;;;8.68;1.80;;;30.10;62.00;;;;;;5008775;28;20133;-54
2022/10/16 10:28:05;;;;;;;8.75;2.10;;;30.10;67.80;;;;;;5030893;28;20034;-52
2022/10/16 10:30:48;;;;;;;8.88;2.28;;;30.40;64.60;;;;;;5030745;28;20037;-52
2022/10/16 10:33:52;;;;;;;11.18;2.03;;;29.90;64.10;;;;;;5018244;28;20496;-49
2022/10/16 10:36:34;;;;;;;8.68;2.13;;;30.60;64.90;;;;;;5030695;28;20010;-49
2022/10/16 10:39:06;;;;;;;11.38;2.42;;;30.30;60.10;;;;;;5030854;28;20036;-53
2022/10/16 10:41:40;;;;;;;10.93;2.05;;;29.50;61.70;;;;;;5030047;28;20061;-55
2022/10/16 10:44:15;;;;;;;11.52;2.40;;;28.20;62.10;;;;;;5030188;28;20037;-47
2022/10/16 10:46:46;;;;;;;13.48;2.35;;;27.50;64.90;;;;;;5030140;28;20057;-49
2022/10/16 10:49:36;;;;;;;6.60;1.80;;;26.70;66.50;;;;;;5030032;28;20499;-49
2022/10/16 10:52:37;;;;;;;8.90;1.88;;;26.00;68.60;;;;;;5030112;28;20021;-49
2022/10/16 10:55:41;;;;;;;11.52;2.10;;;24.80;73.40;;;;;;5030163;28;20025;-52
2022/10/16 10:58:25;;;;;;;9.25;1.85;;;23.60;75.80;;;;;;5029453;28;20483;-52
2022/10/16 11:01:13;;;;;;;9.20;1.90;;;21.90;77.60;;;;;;5029795;28;20052;-49
2022/10/16 11:03:52;;;;;;;10.18;2.10;;;21.20;83.40;;;;;;5029696;28;20113;-48
2022/10/16 11:06:24;;;;;;;14.93;1.95;;;20.90;87.20;;;;;;5030730;28;20038;-53
2022/10/16 11:09:12;;;;;;;12.50;1.90;;;20.70;87.20;;;;;;5030365;28;20040;-57
2022/10/16 11:11:54;;;;;;;7.10;1.55;;;20.30;90.20;;;;;;5030408;28;20488;-47
2022/10/16 11:14:28;;;;;;;10.10;1.85;;;20.00;91.20;;;;;;5030529;28;20148;-50
2022/10/16 11:17:11;;;;;;;13.98;2.08;;;19.70;92.80;;;;;;5030435;28;20448;-49
2022/10/16 11:19:40;;;;;;;13.20;2.03;;;19.10;92.80;;;;;;5030142;28;20034;-52
2022/10/16 11:22:24;;;;;;;9.20;2.03;;;18.90;93.60;;;;;;5030184;28;20129;-48
2022/10/16 11:25:08;;;;;;;9.80;2.00;;;18.90;96.00;;;;;;5029683;28;20048;-52
2022/10/16 11:27:47;;;;;;;10.82;1.88;;;18.70;96.60;;;;;;5029774;28;20104;-51
2022/10/16 11:30:27;;;;;;;11.48;2.22;;;18.50;97.70;;;;;;5028282;28;20131;-51
2022/10/16 11:33:05;;;;;;;13.00;1.90;;;18.40;98.40;;;;;;5029624;28;20021;-50
2022/10/16 11:35:46;;;;;;;15.60;2.10;;;18.10;98.50;;;;;;5029583;28;20029;-48
2022/10/16 11:38:34;;;;;;;12.35;2.28;;;18.00;99.90;;;;;;5026144;28;20025;-51
2022/10/16 11:41:22;;;;;;;9.18;1.98;;;18.00;99.90;;;;;;5022238;28;20056;-50
2022/10/16 11:44:29;;;;;;;11.57;2.03;;;18.00;99.90;;;;;;5026045;28;20064;-52
2022/10/16 11:47:04;;;;;;;12.95;2.20;;;18.40;99.90;;;;;;5010320;28;20048;-50
2022/10/16 11:49:32;;;;;;;27.75;10.63;;;18.50;99.90;;;;;;5024892;28;20045;-54
2022/10/16 11:52:12;;;;;;;18.88;3.95;;;18.30;99.90;;;;;;5014323;28;20029;-55
2022/10/16 11:54:49;;;;;;;15.73;2.28;;;18.20;99.90;;;;;;5026400;28;20048;-51
2022/10/16 11:57:28;;;;;;;11.90;2.03;;;18.00;99.90;;;;;;5028690;28;20538;-48
2022/10/16 12:00:14;;;;;;;12.05;1.83;;;17.80;99.90;;;;;;5017714;28;20488;-52
2022/10/16 12:03:00;;;;;;;14.95;2.38;;;17.70;99.90;;;;;;5031440;28;20021;-48
2022/10/16 12:05:56;;;;;;;13.13;1.70;;;17.40;99.90;;;;;;5032721;28;20025;-52
2022/10/16 12:08:22;;;;;;;14.05;1.90;;;17.40;99.90;;;;;;5026748;28;20084;-48
2022/10/16 12:10:48;;;;;;;16.80;2.90;;;17.50;99.90;;;;;;5031761;28;20041;-51
2022/10/16 12:13:37;;;;;;;13.95;2.35;;;17.50;99.90;;;;;;5032283;28;20017;-50
2022/10/16 12:16:12;;;;;;;12.93;1.83;;;17.60;99.90;;;;;;5030382;28;20412;-49
2022/10/16 12:18:40;;;;;;;9.90;1.65;;;17.60;99.90;;;;;;5030343;28;20594;-51
2022/10/16 12:21:07;;;;;;;12.05;1.73;;;17.70;99.90;;;;;;5030377;28;20369;-48
2022/10/16 12:23:57;;;;;;;10.05;1.67;;;17.70;99.90;;;;;;5030828;28;20051;-50
2022/10/16 12:26:33;;;;;;;14.00;2.22;;;17.90;99.90;;;;;;5030018;28;20053;-48
2022/10/16 12:29:20;;;;;;;14.50;2.15;;;18.10;99.90;;;;;;5030750;28;20374;-51
2022/10/16 12:31:48;;;;;;;13.73;1.92;;;18.10;99.90;;;;;;5014408;28;20094;-48
2022/10/16 12:34:22;;;;;;;8.23;1.63;;;18.00;99.90;;;;;;5032669;28;20048;-47
2022/10/16 12:36:48;;;;;;;10.35;1.70;;;18.10;99.90;;;;;;5032534;28;20021;-49
2022/10/16 12:39:40;;;;;;;13.50;2.17;;;18.10;99.90;;;;;;5032800;28;20101;-48
2022/10/16 12:42:26;;;;;;;16.65;2.25;;;18.00;99.90;;;;;;5029973;28;20040;-51
2022/10/16 12:44:53;;;;;;;11.20;1.63;;;17.80;99.90;;;;;;5032882;28;20010;-54
2022/10/16 12:47:34;;;;;;;16.10;2.40;;;17.70;99.90;;;;;;5032709;28;20590;-51
2022/10/16 12:50:00;;;;;;;13.57;1.70;;;17.60;99.90;;;;;;5033304;28;20071;-51
2022/10/16 12:52:33;;;;;;;10.52;1.80;;;17.50;99.90;;;;;;5033075;28;20108;-55
2022/10/16 12:55:00;;;;;;;15.60;2.13;;;17.40;99.90;;;;;;5031803;28;20026;-54
2022/10/16 12:57:32;;;;;;;12.93;1.90;;;17.40;99.90;;;;;;5031091;28;20377;-53
2022/10/16 13:00:22;;;;;;;12.52;2.38;;;17.30;99.90;;;;;;5032069;28;20025;-50
2022/10/16 13:03:08;;;;;;;8.82;1.60;;;17.20;99.90;;;;;;5029817;28;20052;-53